RYR36GB LPPR-LEPA
Flight info
| Callsign | RYR36GB |
|---|---|
| Flight time | N/A |
| Altitude | 31000 |
| Route | PESUL DCT RIVRO DCT BARDI/N0453F320 M191 DIPOL/N0451F340 M871 NVS/N0453F350 DCT NANDO DCT MINGU DCT ABOSI DCT MABUX DCT RETBA DCT MOPIR DCT LASPO/N0419F260 M871 GODOX |
| Aircraft | B738/M-SDE2E3FGHIRWXY/LB1 |
Departure
| Time | 2026-05-05 10:15 |
|---|---|
| Airport | Francisco de Sá Carneiro Airport (LPPR) |
Arrival
| Time | N/A |
|---|---|
| Airport | Palma de Mallorca Airport (LEPA) |
| Time | Latitude | Longitude | Altitude | Speed | Heading |
|---|---|---|---|---|---|
| 2026-05-05 10:01 | 41.23593 | -8.67229 | 234 ft | 0 kts | 89° |
| 2026-05-05 10:08 | 41.23593 | -8.67248 | 238 ft | 4 kts | 96° |
| 2026-05-05 10:08 | 41.23599 | -8.67283 | 234 ft | 4 kts | 115° |
| 2026-05-05 10:08 | 41.23613 | -8.67312 | 240 ft | 4 kts | 138° |
| 2026-05-05 10:08 | 41.23635 | -8.67330 | 239 ft | 4 kts | 164° |
| 2026-05-05 10:09 | 41.23640 | -8.67332 | 239 ft | 0 kts | 168° |
| 2026-05-05 10:11 | 41.23621 | -8.67328 | 238 ft | 5 kts | 175° |
| 2026-05-05 10:11 | 41.23578 | -8.67342 | 235 ft | 7 kts | 207° |
| 2026-05-05 10:11 | 41.23537 | -8.67375 | 236 ft | 7 kts | 211° |
| 2026-05-05 10:11 | 41.23492 | -8.67387 | 236 ft | 7 kts | 169° |
| 2026-05-05 10:12 | 41.23447 | -8.67375 | 234 ft | 7 kts | 169° |
| 2026-05-05 10:12 | 41.23401 | -8.67364 | 235 ft | 7 kts | 169° |
| 2026-05-05 10:12 | 41.23346 | -8.67384 | 236 ft | 10 kts | 234° |
| 2026-05-05 10:12 | 41.23323 | -8.67489 | 235 ft | 13 kts | 259° |
| 2026-05-05 10:13 | 41.23309 | -8.67591 | 236 ft | 0 kts | 258° |
| 2026-05-05 10:13 | 41.23308 | -8.67600 | 235 ft | 3 kts | 258° |
| 2026-05-05 10:13 | 41.23298 | -8.67661 | 236 ft | 11 kts | 258° |
| 2026-05-05 10:14 | 41.23302 | -8.67730 | 239 ft | 5 kts | 337° |
| 2026-05-05 10:14 | 41.23334 | -8.67737 | 235 ft | 5 kts | 349° |
| 2026-05-05 10:14 | 41.23374 | -8.67747 | 236 ft | 14 kts | 349° |
| 2026-05-05 10:14 | 41.23709 | -8.67835 | 236 ft | 84 kts | 349° |
| 2026-05-05 10:15 | 41.24490 | -8.68040 | 236 ft | 142 kts | 348° |
| 2026-05-05 10:15 | 41.25571 | -8.68328 | 528 ft | 164 kts | 347° |
| 2026-05-05 10:15 | 41.26685 | -8.68626 | 1325 ft | 164 kts | 348° |
| 2026-05-05 10:15 | 41.27795 | -8.68959 | 2186 ft | 166 kts | 346° |
| 2026-05-05 10:16 | 41.29039 | -8.69287 | 2617 ft | 198 kts | 348° |
| 2026-05-05 10:16 | 41.30494 | -8.69376 | 2790 ft | 224 kts | 15° |
| 2026-05-05 10:16 | 41.31771 | -8.68133 | 3196 ft | 239 kts | 56° |
| 2026-05-05 10:16 | 41.32308 | -8.65966 | 3509 ft | 261 kts | 86° |
| 2026-05-05 10:17 | 41.31967 | -8.63560 | 4136 ft | 272 kts | 115° |
| 2026-05-05 10:17 | 41.30822 | -8.61554 | 4951 ft | 276 kts | 136° |
| 2026-05-05 10:17 | 41.29371 | -8.59849 | 5729 ft | 281 kts | 140° |
| 2026-05-05 10:17 | 41.27865 | -8.58157 | 6505 ft | 286 kts | 140° |
| 2026-05-05 10:18 | 41.26334 | -8.56432 | 7226 ft | 291 kts | 140° |
| 2026-05-05 10:18 | 41.24786 | -8.54663 | 7995 ft | 295 kts | 139° |
| 2026-05-05 10:18 | 41.23229 | -8.52860 | 8726 ft | 299 kts | 138° |
| 2026-05-05 10:18 | 41.21654 | -8.51018 | 9456 ft | 304 kts | 138° |
| 2026-05-05 10:19 | 41.20058 | -8.49140 | 10185 ft | 309 kts | 137° |
| 2026-05-05 10:19 | 41.18413 | -8.47197 | 10537 ft | 327 kts | 137° |
| 2026-05-05 10:19 | 41.16657 | -8.45116 | 10725 ft | 349 kts | 137° |
| 2026-05-05 10:19 | 41.14822 | -8.42940 | 11035 ft | 364 kts | 137° |
| 2026-05-05 10:20 | 41.12912 | -8.40676 | 11640 ft | 371 kts | 137° |
| 2026-05-05 10:20 | 41.10981 | -8.38387 | 12384 ft | 374 kts | 137° |
| 2026-05-05 10:20 | 41.09034 | -8.36080 | 13114 ft | 378 kts | 138° |
| 2026-05-05 10:20 | 41.07058 | -8.33740 | 13841 ft | 383 kts | 138° |
| 2026-05-05 10:21 | 41.05062 | -8.31379 | 14508 ft | 387 kts | 138° |
| 2026-05-05 10:21 | 41.03047 | -8.28997 | 15161 ft | 391 kts | 138° |